Time;durP1;ratioP1;P1;durP2;ratioP2;P2;SDS_P1;SDS_P2;PMS_P1;PMS_P2;Temp;Humidity;BMP_temperature;BMP_pressure;BME280_temperature;BME280_humidity;BME280_pressure;Samples;Min_cycle;Max_cycle;Signal;HPM_P1;HPM_P2
2024/03/30 00:00:14;;;;;;;;;;;;;;;13.37;47.94;99219.50;4943145;27;98826;-68
2024/03/30 00:02:40;;;;;;;;;;;;;;;13.36;47.87;99218.69;4919381;27;98189;-69
2024/03/30 00:05:06;;;;;;;;;;;;;;;13.35;47.74;99208.19;4961192;27;97870;-69
2024/03/30 00:07:33;;;;;;;;;;;;;;;13.34;47.67;99220.91;4942656;27;98421;-69
2024/03/30 00:10:01;;;;;;;;;;;;;;;13.32;47.94;99215.00;4939914;27;101482;-76
2024/03/30 00:12:27;;;;;;;;;;;;;;;13.32;47.65;99217.72;4937280;27;98338;-68
2024/03/30 00:14:53;;;;;;;;;;;;;;;13.31;47.58;99207.22;4936053;28;99563;-69
2024/03/30 00:17:20;;;;;;;;;;;;;;;13.30;47.65;99208.34;4953055;27;99212;-76
2024/03/30 00:19:47;;;;;;;;;;;;;;;13.28;47.58;99203.22;4941038;27;98225;-76
2024/03/30 00:22:13;;;;;;;;;;;;;;;13.27;47.94;99207.03;4917426;28;98349;-77
2024/03/30 00:24:39;;;;;;;;;;;;;;;13.25;47.63;99204.66;4924734;28;101567;-69
2024/03/30 00:27:05;;;;;;;;;;;;;;;13.24;47.85;99207.66;4952733;28;98138;-77
2024/03/30 00:29:35;;;;;;;;;;;;;;;13.22;47.82;99202.56;4955838;27;98063;-76
2024/03/30 00:32:02;;;;;;;;;;;;;;;13.21;47.65;99192.06;4954355;27;98050;-77
2024/03/30 00:34:28;;;;;;;;;;;;;;;13.19;47.89;99183.44;4942871;28;98936;-68
2024/03/30 00:36:54;;;;;;;;;;;;;;;13.18;47.65;99182.66;4941086;28;98041;-77
2024/03/30 00:39:20;;;;;;;;;;;;;;;13.14;47.81;99189.00;4944563;28;98128;-69
2024/03/30 00:41:49;;;;;;;;;;;;;;;13.14;47.77;99178.97;4936731;28;99355;-77
2024/03/30 00:44:18;;;;;;;;;;;;;;;13.13;48.05;99174.69;4943586;27;98169;-76
2024/03/30 00:46:45;;;;;;;;;;;;;;;13.11;47.88;99178.81;4940650;27;99380;-77
2024/03/30 00:49:12;;;;;;;;;;;;;;;13.09;47.91;99179.13;4946149;27;97911;-69
2024/03/30 00:51:38;;;;;;;;;;;;;;;13.07;47.67;99178.63;4927944;27;98176;-76
2024/03/30 00:54:06;;;;;;;;;;;;;;;13.06;48.10;99187.88;4940646;28;98163;-77
2024/03/30 00:56:32;;;;;;;;;;;;;;;13.05;47.92;99191.69;4943259;27;98076;-69
2024/03/30 00:59:00;;;;;;;;;;;;;;;13.03;48.12;99188.50;4940001;28;99384;-75
2024/03/30 01:01:28;;;;;;;;;;;;;;;13.01;47.79;99191.53;4916459;28;99812;-76
2024/03/30 01:03:54;;;;;;;;;;;;;;;13.00;47.80;99189.91;4955836;28;99449;-77
2024/03/30 01:06:21;;;;;;;;;;;;;;;12.98;47.69;99189.44;4938103;28;98267;-69
2024/03/30 01:08:50;;;;;;;;;;;;;;;12.97;47.95;99193.25;4927205;27;98533;-77
2024/03/30 01:11:17;;;;;;;;;;;;;;;12.97;48.07;99195.97;4929935;28;97972;-76
2024/03/30 01:13:43;;;;;;;;;;;;;;;12.95;47.84;99191.97;4942845;28;98611;-68
2024/03/30 01:16:13;;;;;;;;;;;;;;;12.94;48.02;99195.78;4935608;28;98196;-76
2024/03/30 01:18:39;;;;;;;;;;;;;;;12.93;47.76;99196.88;4926760;28;99311;-77
2024/03/30 01:21:06;;;;;;;;;;;;;;;12.92;47.72;99187.19;4949657;28;100020;-68
2024/03/30 01:23:33;;;;;;;;;;;;;;;12.89;48.15;99194.03;4988654;27;103742;-68
2024/03/30 01:26:00;;;;;;;;;;;;;;;12.90;47.95;99200.25;4959979;28;97914;-77
2024/03/30 01:28:26;;;;;;;;;;;;;;;12.88;48.00;99202.44;4952778;28;98255;-68
2024/03/30 01:30:52;;;;;;;;;;;;;;;12.87;47.94;99200.84;4941267;28;98470;-68
2024/03/30 01:33:19;;;;;;;;;;;;;;;12.86;47.83;99201.97;4955034;28;98959;-77
2024/03/30 01:35:46;;;;;;;;;;;;;;;12.84;47.93;99204.97;4970033;27;99263;-68
2024/03/30 01:38:12;;;;;;;;;;;;;;;12.85;47.95;99205.75;4922629;28;98203;-77
2024/03/30 01:40:39;;;;;;;;;;;;;;;12.82;48.04;99207.22;4950639;28;100036;-77
2024/03/30 01:43:05;;;;;;;;;;;;;;;12.82;48.18;99207.22;4952383;28;101212;-77
2024/03/30 01:45:37;;;;;;;;;;;;;;;12.82;47.96;99203.72;4971567;27;98180;-77
2024/03/30 01:48:05;;;;;;;;;;;;;;;12.81;47.73;99202.91;4939973;28;99182;-68
2024/03/30 01:50:32;;;;;;;;;;;;;;;12.80;48.00;99193.19;4951171;28;99819;-77
2024/03/30 01:52:59;;;;;;;;;;;;;;;12.80;48.08;99181.56;4936770;28;98174;-68
2024/03/30 01:55:25;;;;;;;;;;;;;;;12.79;48.12;99186.19;4927047;28;99842;-68
2024/03/30 01:57:52;;;;;;;;;;;;;;;12.78;47.90;99179.19;4954220;28;98011;-69
2024/03/30 02:00:21;;;;;;;;;;;;;;;12.77;48.07;99180.28;4952243;28;99987;-77
2024/03/30 02:02:49;;;;;;;;;;;;;;;12.76;48.20;99176.00;4968314;27;98412;-69
2024/03/30 02:05:17;;;;;;;;;;;;;;;12.75;47.84;99177.91;4953442;28;99793;-77
2024/03/30 02:07:46;;;;;;;;;;;;;;;12.75;48.07;99169.00;4932986;28;99264;-68
2024/03/30 02:10:12;;;;;;;;;;;;;;;12.74;47.89;99176.31;4971236;27;98166;-68
2024/03/30 02:12:40;;;;;;;;;;;;;;;12.74;47.90;99172.81;4972968;27;98711;-68
2024/03/30 02:15:07;;;;;;;;;;;;;;;12.73;47.93;99166.63;4939790;28;98157;-68
2024/03/30 02:17:33;;;;;;;;;;;;;;;12.72;47.97;99166.91;4937475;27;98199;-69
2024/03/30 02:19:59;;;;;;;;;;;;;;;12.72;47.84;99169.63;4972590;27;98173;-68
2024/03/30 02:22:25;;;;;;;;;;;;;;;12.72;48.08;99170.41;4963985;27;98349;-68
2024/03/30 02:24:51;;;;;;;;;;;;;;;12.71;48.09;99168.03;4954328;28;101592;-68
2024/03/30 02:27:17;;;;;;;;;;;;;;;12.70;47.81;99169.16;4954155;27;98439;-68
2024/03/30 02:29:46;;;;;;;;;;;;;;;12.71;48.08;99173.44;4944402;27;99562;-77
2024/03/30 02:32:13;;;;;;;;;;;;;;;12.70;47.92;99177.25;4958275;27;98114;-77
2024/03/30 02:34:40;;;;;;;;;;;;;;;12.69;48.06;99181.06;4945519;27;99623;-68
2024/03/30 02:37:06;;;;;;;;;;;;;;;12.69;47.86;99181.06;4953453;28;98303;-77
2024/03/30 02:39:33;;;;;;;;;;;;;;;12.67;47.91;99184.06;4947847;27;98834;-76
2024/03/30 02:42:00;;;;;;;;;;;;;;;12.68;48.06;99179.47;4979429;27;98971;-76
2024/03/30 02:44:26;;;;;;;;;;;;;;;12.66;48.05;99187.91;4973258;27;98168;-68
2024/03/30 02:46:54;;;;;;;;;;;;;;;12.67;47.88;99181.38;4944152;27;98766;-77
2024/03/30 02:49:21;;;;;;;;;;;;;;;12.65;47.85;99185.47;4960879;27;98122;-68
2024/03/30 02:51:47;;;;;;;;;;;;;;;12.65;48.09;99180.06;4956587;28;102124;-68
2024/03/30 02:54:14;;;;;;;;;;;;;;;12.64;48.00;99175.78;4971957;27;99951;-68
2024/03/30 02:56:43;;;;;;;;;;;;;;;12.64;47.94;99183.91;4942755;28;98096;-76
2024/03/30 02:59:09;;;;;;;;;;;;;;;12.64;47.93;99178.50;4957582;27;98669;-76
2024/03/30 03:01:36;;;;;;;;;;;;;;;12.63;48.19;99175.00;4944582;28;98605;-76
2024/03/30 03:04:05;;;;;;;;;;;;;;;12.63;47.91;99174.19;4957862;27;98213;-72
2024/03/30 03:06:32;;;;;;;;;;;;;;;12.62;47.92;99176.13;4972020;27;98121;-76
2024/03/30 03:08:59;;;;;;;;;;;;;;;12.62;48.16;99167.22;4953538;27;98386;-76
2024/03/30 03:11:26;;;;;;;;;;;;;;;12.62;48.08;99178.03;4940309;27;98200;-68
2024/03/30 03:13:52;;;;;;;;;;;;;;;12.61;48.11;99179.09;4967852;27;98676;-68
2024/03/30 03:16:18;;;;;;;;;;;;;;;12.61;47.94;99179.91;4968307;27;98119;-68
2024/03/30 03:18:45;;;;;;;;;;;;;;;12.62;48.00;99175.31;4943051;28;98076;-76
2024/03/30 03:21:11;;;;;;;;;;;;;;;12.61;48.16;99179.91;4945094;28;98075;-76
2024/03/30 03:23:38;;;;;;;;;;;;;;;12.60;48.09;99177.53;4949724;28;98014;-68
2024/03/30 03:26:04;;;;;;;;;;;;;;;12.61;48.12;99179.91;4954017;27;99034;-67
2024/03/30 03:28:32;;;;;;;;;;;;;;;12.61;47.86;99182.59;4927350;28;120239;-76
2024/03/30 03:30:58;;;;;;;;;;;;;;;12.61;48.09;99181.81;4943130;27;98408;-67
2024/03/30 03:33:25;;;;;;;;;;;;;;;12.59;47.94;99182.13;4925189;28;99143;-69
2024/03/30 03:35:53;;;;;;;;;;;;;;;12.61;48.05;99184.50;4940083;28;98026;-68
2024/03/30 03:38:19;;;;;;;;;;;;;;;12.60;48.22;99174.81;4937542;27;98853;-68
2024/03/30 03:40:45;;;;;;;;;;;;;;;12.58;48.19;99177.84;4923973;28;98411;-67
2024/03/30 03:43:11;;;;;;;;;;;;;;;12.58;48.22;99177.06;4942831;27;98894;-67
2024/03/30 03:45:43;;;;;;;;;;;;;;;12.57;48.13;99173.53;4942310;28;98251;-76
2024/03/30 03:48:10;;;;;;;;;;;;;;;12.58;47.91;99171.66;4944477;27;98891;-76
2024/03/30 03:50:37;;;;;;;;;;;;;;;12.57;48.17;99175.44;4945631;28;98438;-67
2024/03/30 03:53:03;;;;;;;;;;;;;;;12.56;48.01;99171.16;4931103;27;98406;-68
2024/03/30 03:55:31;;;;;;;;;;;;;;;12.55;48.00;99167.66;4950578;27;98968;-68
2024/03/30 03:57:57;;;;;;;;;;;;;;;12.55;48.00;99164.16;4941977;28;98227;-68
2024/03/30 04:00:24;;;;;;;;;;;;;;;12.54;48.17;99157.94;4939676;27;98901;-75
2024/03/30 04:02:51;;;;;;;;;;;;;;;12.51;48.15;99156.66;4946953;28;98148;-67
2024/03/30 04:05:17;;;;;;;;;;;;;;;12.52;48.04;99152.03;4956458;27;98062;-67
2024/03/30 04:07:44;;;;;;;;;;;;;;;12.51;47.97;99156.66;4950422;28;99508;-68
2024/03/30 04:10:14;;;;;;;;;;;;;;;12.50;48.13;99162.38;4941398;27;99485;-67
2024/03/30 04:12:40;;;;;;;;;;;;;;;12.50;48.31;99159.69;4920000;28;98309;-67
2024/03/30 04:15:08;;;;;;;;;;;;;;;12.48;48.06;99159.19;4926896;28;98064;-76
2024/03/30 04:17:34;;;;;;;;;;;;;;;12.49;47.96;99158.06;4940720;27;98175;-68
2024/03/30 04:20:04;;;;;;;;;;;;;;;12.46;48.07;99154.09;4935711;28;98162;-77
2024/03/30 04:22:30;;;;;;;;;;;;;;;12.47;48.14;99154.91;4945142;27;98851;-76
2024/03/30 04:24:56;;;;;;;;;;;;;;;12.45;48.23;99163.28;4917531;28;98460;-67
2024/03/30 04:27:23;;;;;;;;;;;;;;;12.45;48.16;99163.28;4958848;27;99944;-77
2024/03/30 04:29:50;;;;;;;;;;;;;;;12.44;47.88;99161.72;4939037;28;98535;-77
2024/03/30 04:32:16;;;;;;;;;;;;;;;12.43;48.16;99162.81;4933465;27;98048;-76
2024/03/30 04:34:43;;;;;;;;;;;;;;;12.42;48.15;99166.63;4928484;28;102536;-68
2024/03/30 04:37:09;;;;;;;;;;;;;;;12.43;48.08;99162.03;4938211;27;99947;-68
2024/03/30 04:39:35;;;;;;;;;;;;;;;12.42;48.15;99165.84;4946935;27;98251;-68
2024/03/30 04:42:02;;;;;;;;;;;;;;;12.41;48.17;99164.22;4949027;27;97954;-77
2024/03/30 04:44:30;;;;;;;;;;;;;;;12.41;48.08;99164.22;4960408;27;98078;-77
2024/03/30 04:46:57;;;;;;;;;;;;;;;12.40;48.15;99171.53;4942298;27;98218;-77
2024/03/30 04:49:25;;;;;;;;;;;;;;;12.40;48.29;99165.34;4938086;27;98941;-77
2024/03/30 04:51:52;;;;;;;;;;;;;;;12.40;48.03;99168.06;4969724;27;98039;-68
2024/03/30 04:54:18;;;;;;;;;;;;;;;12.41;48.14;99158.81;4936186;28;99535;-68
2024/03/30 04:56:44;;;;;;;;;;;;;;;12.41;48.00;99165.03;4934561;28;102276;-77
2024/03/30 04:59:10;;;;;;;;;;;;;;;12.40;48.22;99158.03;4920539;27;98074;-69
2024/03/30 05:01:36;;;;;;;;;;;;;;;12.42;48.29;99147.72;4939848;27;98623;-68
2024/03/30 05:04:02;;;;;;;;;;;;;;;12.41;48.01;99146.09;4939462;27;98308;-78
2024/03/30 05:06:29;;;;;;;;;;;;;;;12.43;48.05;99151.22;4947139;27;98484;-68
2024/03/30 05:08:56;;;;;;;;;;;;;;;12.44;48.18;99152.81;4926233;27;98138;-69
2024/03/30 05:11:22;;;;;;;;;;;;;;;12.44;48.01;99155.50;4937539;27;100079;-69
2024/03/30 05:13:48;;;;;;;;;;;;;;;12.47;48.04;99152.19;4937681;28;99784;-68
2024/03/30 05:16:15;;;;;;;;;;;;;;;12.48;48.17;99159.19;4930206;27;99255;-78
2024/03/30 05:18:43;;;;;;;;;;;;;;;12.49;48.25;99158.06;4944193;27;99038;-78
2024/03/30 05:21:11;;;;;;;;;;;;;;;12.54;47.93;99157.94;4941594;27;99651;-69
2024/03/30 05:23:38;;;;;;;;;;;;;;;12.60;48.02;99151.28;4946024;27;98025;-68
2024/03/30 05:26:05;;;;;;;;;;;;;;;12.70;47.75;99142.13;4941853;27;97896;-68
2024/03/30 05:28:33;;;;;;;;;;;;;;;12.82;47.79;99144.22;4939572;27;98025;-68
2024/03/30 05:31:04;;;;;;;;;;;;;;;12.93;47.62;99149.03;4950616;27;98078;-77
2024/03/30 05:33:30;;;;;;;;;;;;;;;13.02;47.60;99140.94;4926376;28;99127;-68
2024/03/30 05:35:56;;;;;;;;;;;;;;;13.13;47.46;99138.72;4945435;27;98645;-68
2024/03/30 05:38:23;;;;;;;;;;;;;;;13.19;47.31;99134.75;4945931;27;100154;-68
2024/03/30 05:40:50;;;;;;;;;;;;;;;13.26;47.76;99132.41;4927604;27;99058;-68
2024/03/30 05:43:16;;;;;;;;;;;;;;;13.30;47.51;99141.47;4940159;27;98156;-77
2024/03/30 05:45:46;;;;;;;;;;;;;;;13.36;47.65;99125.88;4926261;27;98526;-68
2024/03/30 05:48:13;;;;;;;;;;;;;;;13.39;47.50;99134.16;4952855;27;98282;-76
2024/03/30 05:50:39;;;;;;;;;;;;;;;13.44;47.54;99139.44;4938362;27;99140;-77
2024/03/30 05:53:05;;;;;;;;;;;;;;;13.46;47.78;99137.19;4919928;28;98133;-77
2024/03/30 05:55:32;;;;;;;;;;;;;;;13.50;47.40;99142.75;4915977;27;98167;-77
2024/03/30 05:58:03;;;;;;;;;;;;;;;13.51;47.76;99139.72;4940544;27;98221;-68
2024/03/30 06:00:30;;;;;;;;;;;;;;;13.56;47.51;99133.38;4935369;27;98337;-76
2024/03/30 06:02:57;;;;;;;;;;;;;;;13.60;47.81;99131.63;4943483;27;98403;-77
2024/03/30 06:05:23;;;;;;;;;;;;;;;13.66;47.38;99135.75;4974728;27;99372;-68
2024/03/30 06:07:49;;;;;;;;;;;;;;;13.70;47.63;99127.78;4950050;27;98113;-77
2024/03/30 06:10:15;;;;;;;;;;;;;;;13.73;47.46;99129.84;4935266;28;101396;-68
2024/03/30 06:12:41;;;;;;;;;;;;;;;13.78;47.65;99132.38;4935985;27;98448;-68
2024/03/30 06:15:08;;;;;;;;;;;;;;;13.83;47.46;99131.41;4937728;27;98439;-76
2024/03/30 06:17:35;;;;;;;;;;;;;;;13.89;47.57;99132.88;4916923;27;98893;-77
2024/03/30 06:20:05;;;;;;;;;;;;;;;13.95;47.67;99128.84;4942385;27;98271;-69
2024/03/30 06:22:34;;;;;;;;;;;;;;;14.03;47.58;99132.66;4918661;27;98461;-77
2024/03/30 06:25:01;;;;;;;;;;;;;;;14.12;47.58;99133.47;4921417;27;98298;-69
2024/03/30 06:27:31;;;;;;;;;;;;;;;14.17;47.51;99130.56;4922861;27;98146;-76
2024/03/30 06:29:57;;;;;;;;;;;;;;;14.23;47.55;99132.78;4927979;27;100149;-77
2024/03/30 06:32:23;;;;;;;;;;;;;;;14.33;47.32;99123.50;4942256;27;98816;-77
2024/03/30 06:34:51;;;;;;;;;;;;;;;14.43;47.19;99131.28;4939147;27;99700;-77
2024/03/30 06:37:17;;;;;;;;;;;;;;;14.60;47.30;99133.16;4939090;28;98495;-69
2024/03/30 06:45:13;;;;;;;;;;;;;;;15.21;46.96;99132.84;4940305;27;98230;-77
2024/03/30 06:47:40;;;;;;;;;;;;;;;15.40;46.57;99127.72;4927795;27;99337;-77
2024/03/30 06:50:07;;;;;;;;;;;;;;;15.65;46.62;99130.59;4928765;27;99211;-68
2024/03/30 06:52:33;;;;;;;;;;;;;;;15.88;46.57;99128.31;4934524;27;100548;-69
2024/03/30 06:54:59;;;;;;;;;;;;;;;16.10;46.53;99129.84;4934510;27;103767;-77
2024/03/30 06:57:26;;;;;;;;;;;;;;;16.34;46.38;99131.81;4935368;27;98228;-69
2024/03/30 06:59:52;;;;;;;;;;;;;;;16.54;46.15;99132.84;4923621;27;99386;-69
2024/03/30 07:02:19;;;;;;;;;;;;;;;16.71;46.21;99131.88;4929518;27;99553;-77
2024/03/30 07:04:46;;;;;;;;;;;;;;;16.84;46.36;99128.03;4939550;27;98077;-77
2024/03/30 07:07:12;;;;;;;;;;;;;;;17.04;46.15;99129.03;4950304;27;99062;-77
2024/03/30 07:09:39;;;;;;;;;;;;;;;17.23;46.09;99140.13;4939804;27;98383;-77
2024/03/30 07:12:06;;;;;;;;;;;;;;;17.32;46.03;99127.16;4938664;27;98151;-69
2024/03/30 07:14:32;;;;;;;;;;;;;;;17.43;46.17;99122.81;4941133;27;98208;-69
2024/03/30 07:16:58;;;;;;;;;;;;;;;17.59;46.21;99122.09;4926592;28;100001;-77
2024/03/30 07:19:25;;;;;;;;;;;;;;;17.69;46.18;99131.72;4933913;28;99003;-77
2024/03/30 07:21:52;;;;;;;;;;;;;;;17.79;46.10;99133.97;4928965;28;100554;-77
2024/03/30 07:24:19;;;;;;;;;;;;;;;17.86;46.15;99143.13;4918058;28;98951;-77
2024/03/30 07:26:45;;;;;;;;;;;;;;;17.98;46.07;99149.69;4906488;28;98292;-69
2024/03/30 07:29:13;;;;;;;;;;;;;;;18.18;45.91;99156.03;4935674;28;98126;-77
2024/03/30 07:31:40;;;;;;;;;;;;;;;18.41;45.95;99146.13;4918836;28;99148;-77
2024/03/30 07:34:06;;;;;;;;;;;;;;;18.69;45.81;99156.19;4894303;28;103523;-77
2024/03/30 07:36:33;;;;;;;;;;;;;;;18.94;45.67;99157.56;4926468;28;98508;-68
2024/03/30 07:38:59;;;;;;;;;;;;;;;19.19;45.40;99151.91;4916505;28;98945;-76
2024/03/30 07:41:26;;;;;;;;;;;;;;;19.45;45.41;99154.81;4907043;28;99365;-77
2024/03/30 07:43:52;;;;;;;;;;;;;;;19.72;45.26;99157.75;4920353;28;98230;-68
2024/03/30 07:46:18;;;;;;;;;;;;;;;20.00;45.11;99158.31;4900709;28;98407;-68
2024/03/30 07:48:44;;;;;;;;;;;;;;;20.29;45.04;99164.31;4939318;28;99132;-76
2024/03/30 07:51:11;;;;;;;;;;;;;;;20.56;44.95;99166.00;4921141;28;98531;-69
2024/03/30 07:53:38;;;;;;;;;;;;;;;20.88;44.73;99159.47;4898098;28;98938;-77
2024/03/30 07:56:04;;;;;;;;;;;;;;;21.18;44.81;99173.22;4905780;28;98187;-77
2024/03/30 07:58:31;;;;;;;;;;;;;;;21.51;44.66;99167.06;4916664;28;98002;-77
2024/03/30 08:00:57;;;;;;;;;;;;;;;21.85;44.58;99167.88;4919634;28;98345;-77
2024/03/30 08:03:24;;;;;;;;;;;;;;;22.19;44.51;99165.94;4918193;28;98478;-69
2024/03/30 08:05:59;;;;;;;;;;;;;;;22.55;44.03;99155.28;4938709;28;98320;-69
2024/03/30 08:08:25;;;;;;;;;;;;;;;22.94;44.22;99152.09;4904631;28;99105;-76
2024/03/30 08:10:54;;;;;;;;;;;;;;;23.31;43.95;99159.41;4903372;28;98228;-76
2024/03/30 08:13:20;;;;;;;;;;;;;;;23.67;43.76;99161.19;4920014;28;98629;-69
2024/03/30 08:15:47;;;;;;;;;;;;;;;24.04;43.71;99159.34;4922018;28;98958;-68
2024/03/30 08:18:14;;;;;;;;;;;;;;;24.41;43.66;99162.59;4926307;27;99186;-67
2024/03/30 08:20:41;;;;;;;;;;;;;;;24.77;43.43;99165.38;4924912;27;98175;-67
2024/03/30 08:23:07;;;;;;;;;;;;;;;25.08;43.38;99163.78;4933604;28;98188;-67
2024/03/30 08:25:36;;;;;;;;;;;;;;;25.38;43.43;99168.06;4916416;27;99427;-74
2024/03/30 08:28:03;;;;;;;;;;;;;;;25.67;43.46;99171.53;4943237;27;98948;-74
2024/03/30 08:30:30;;;;;;;;;;;;;;;25.94;43.24;99166.31;4936196;27;99869;-74
2024/03/30 08:32:57;;;;;;;;;;;;;;;26.24;43.30;99168.50;4937307;27;99551;-74
2024/03/30 08:35:24;;;;;;;;;;;;;;;26.55;43.03;99171.50;4926872;27;98229;-67
2024/03/30 08:37:50;;;;;;;;;;;;;;;26.87;43.33;99162.94;4938259;27;98080;-74
2024/03/30 08:40:16;;;;;;;;;;;;;;;27.16;42.95;99164.28;4941244;27;98464;-74
2024/03/30 08:42:43;;;;;;;;;;;;;;;27.48;42.67;99163.16;4930771;27;99456;-74
2024/03/30 08:45:09;;;;;;;;;;;;;;;27.80;42.72;99170.31;4946508;28;98136;-74
2024/03/30 08:47:36;;;;;;;;;;;;;;;28.10;42.73;99167.53;4928189;28;98232;-67
2024/03/30 08:50:02;;;;;;;;;;;;;;;28.41;42.40;99169.47;4943775;28;98654;-74
2024/03/30 08:52:28;;;;;;;;;;;;;;;28.70;42.47;99161.53;4921330;27;98291;-74
2024/03/30 08:54:54;;;;;;;;;;;;;;;28.98;42.69;99161.06;4935142;27;100029;-75
2024/03/30 08:57:21;;;;;;;;;;;;;;;29.30;42.22;99160.47;4934684;27;98238;-68
2024/03/30 08:59:49;;;;;;;;;;;;;;;29.60;42.31;99155.97;4937517;27;98215;-68
2024/03/30 09:02:18;;;;;;;;;;;;;;;29.88;42.23;99149.03;4934360;27;98119;-74
2024/03/30 09:04:45;;;;;;;;;;;;;;;30.16;42.11;99144.84;4921343;27;98279;-68
2024/03/30 09:07:11;;;;;;;;;;;;;;;30.43;42.39;99150.19;4938256;27;98457;-68
2024/03/30 09:09:38;;;;;;;;;;;;;;;30.71;42.15;99148.69;4937373;27;98518;-68
2024/03/30 09:12:05;;;;;;;;;;;;;;;30.96;41.96;99148.09;4936885;27;98249;-69
2024/03/30 09:14:34;;;;;;;;;;;;;;;31.20;41.87;99153.41;4949182;27;99481;-74
2024/03/30 09:17:00;;;;;;;;;;;;;;;31.43;41.69;99152.44;4943340;27;98679;-74
2024/03/30 09:19:28;;;;;;;;;;;;;;;31.67;41.98;99150.94;4952730;27;98105;-74
2024/03/30 09:21:55;;;;;;;;;;;;;;;31.90;41.57;99143.53;4938573;27;98329;-68
2024/03/30 09:24:21;;;;;;;;;;;;;;;32.11;41.45;99142.09;4936171;27;98061;-74
2024/03/30 09:26:48;;;;;;;;;;;;;;;32.29;41.75;99136.75;4954625;27;98475;-74
2024/03/30 09:29:14;;;;;;;;;;;;;;;32.56;41.79;99135.53;4939958;27;98716;-74
2024/03/30 09:31:41;;;;;;;;;;;;;;;32.83;41.27;99143.41;4937527;27;100605;-74
2024/03/30 09:34:07;;;;;;;;;;;;;;;33.12;41.02;99143.22;4926212;27;98448;-68
2024/03/30 09:36:33;;;;;;;;;;;;;;;33.39;41.14;99137.84;4946993;28;98252;-68
2024/03/30 09:39:00;;;;;;;;;;;;;;;33.65;40.95;99129.38;4953617;27;99790;-68
2024/03/30 09:41:27;;;;;;;;;;;;;;;33.90;41.08;99134.00;4933027;27;98381;-69
2024/03/30 09:43:54;;;;;;;;;;;;;;;34.09;40.99;99130.06;4942564;27;100723;-68
2024/03/30 09:46:23;;;;;;;;;;;;;;;34.34;40.92;99133.88;4925719;27;98058;-68
2024/03/30 09:48:49;;;;;;;;;;;;;;;34.60;40.77;99129.63;4941026;27;98189;-74
2024/03/30 09:51:16;;;;;;;;;;;;;;;34.86;40.57;99123.75;4945108;27;106547;-74
2024/03/30 09:53:42;;;;;;;;;;;;;;;35.14;40.47;99130.94;4944462;27;98279;-74
2024/03/30 09:56:09;;;;;;;;;;;;;;;35.37;40.50;99115.53;4926786;27;101063;-74
2024/03/30 09:58:35;;;;;;;;;;;;;;;35.60;40.33;99114.09;4927055;27;98178;-74
2024/03/30 10:01:03;;;;;;;;;;;;;;;35.79;40.11;99109.22;4951645;27;98100;-69
2024/03/30 10:03:30;;;;;;;;;;;;;;;36.00;40.20;99107.47;4941752;28;99194;-69
2024/03/30 10:05:56;;;;;;;;;;;;;;;36.21;40.17;99102.06;4943269;27;98445;-74
2024/03/30 10:08:24;;;;;;;;;;;;;;;36.37;40.19;99105.25;4959125;28;99831;-68
2024/03/30 10:10:55;;;;;;;;;;;;;;;36.54;40.03;99094.41;4927808;27;98311;-69
2024/03/30 10:13:27;;;;;;;;;;;;;;;36.70;40.20;99101.63;4962937;28;99926;-68
2024/03/30 10:15:55;;;;;;;;;;;;;;;36.83;39.97;99090.94;4918679;27;98195;-68
2024/03/30 10:18:24;;;;;;;;;;;;;;;37.02;39.67;99090.78;4960950;28;98087;-68
2024/03/30 10:20:54;;;;;;;;;;;;;;;37.23;39.47;99080.47;4925875;27;98236;-69
2024/03/30 10:23:20;;;;;;;;;;;;;;;37.41;39.77;99087.97;4939029;28;98356;-68
2024/03/30 10:25:53;;;;;;;;;;;;;;;37.56;39.75;99080.31;4937102;27;99814;-74
2024/03/30 10:28:20;;;;;;;;;;;;;;;37.45;40.01;99075.25;4939800;27;98339;-74
2024/03/30 10:30:47;;;;;;;;;;;;;;;37.50;39.59;99079.47;4938372;27;98450;-69
2024/03/30 10:33:17;;;;;;;;;;;;;;;37.65;40.04;99083.03;4935718;27;98006;-74
2024/03/30 10:35:43;;;;;;;;;;;;;;;37.68;39.36;99081.25;4936639;28;98345;-74
2024/03/30 10:38:11;;;;;;;;;;;;;;;37.71;39.74;99077.50;4923015;27;98982;-69
2024/03/30 10:40:38;;;;;;;;;;;;;;;37.68;40.04;99075.66;4917077;27;100169;-69
2024/03/30 10:43:04;;;;;;;;;;;;;;;37.70;39.66;99070.31;4934889;27;98450;-69
2024/03/30 10:45:31;;;;;;;;;;;;;;;37.75;40.03;99078.06;4940422;27;98368;-69
2024/03/30 10:47:57;;;;;;;;;;;;;;;37.77;39.57;99069.94;4934557;27;98549;-69
2024/03/30 10:50:27;;;;;;;;;;;;;;;37.74;39.51;99071.66;4949627;28;98174;-69
2024/03/30 10:52:53;;;;;;;;;;;;;;;37.74;39.66;99062.47;4940048;27;98844;-74
2024/03/30 10:55:21;;;;;;;;;;;;;;;37.71;40.02;99061.41;4924320;28;100147;-74
2024/03/30 10:57:48;;;;;;;;;;;;;;;37.69;40.24;99065.94;4944176;27;98298;-68
2024/03/30 11:00:14;;;;;;;;;;;;;;;37.59;40.07;99065.28;4944431;27;98289;-74
2024/03/30 11:02:41;;;;;;;;;;;;;;;37.58;40.12;99061.72;4928753;27;99068;-69
2024/03/30 11:05:08;;;;;;;;;;;;;;;37.40;40.25;99050.66;4948050;27;98828;-68
2024/03/30 11:07:38;;;;;;;;;;;;;;;37.18;40.47;99059.47;4934190;27;99207;-69
2024/03/30 11:10:06;;;;;;;;;;;;;;;37.08;40.12;99053.16;4958888;27;100000;-68
2024/03/30 11:12:33;;;;;;;;;;;;;;;37.10;39.95;99059.06;4950673;27;101676;-68
2024/03/30 11:15:01;;;;;;;;;;;;;;;37.12;40.27;99050.16;4937926;27;98087;-68
2024/03/30 11:17:41;;;;;;;;;;;;;;;36.91;40.68;99048.47;4941109;27;100091;-68
2024/03/30 11:20:22;;;;;;;;;;;;;;;36.32;41.00;99038.59;4950448;27;102666;-68
2024/03/30 11:22:54;;;;;;;;;;;;;;;36.14;41.17;99036.69;4939927;27;99647;-73
2024/03/30 11:25:24;;;;;;;;;;;;;;;36.19;40.71;99037.28;4960517;27;98203;-69
2024/03/30 11:28:07;;;;;;;;;;;;;;;35.84;40.80;99035.75;4930251;27;98011;-73
2024/03/30 11:30:35;;;;;;;;;;;;;;;36.04;40.75;99024.00;4941168;27;99051;-68
2024/03/30 11:33:18;;;;;;;;;;;;;;;36.12;40.51;99033.59;4954961;27;98235;-68
2024/03/30 11:35:47;;;;;;;;;;;;;;;35.93;40.79;99012.50;4943719;27;98292;-68
2024/03/30 11:38:14;;;;;;;;;;;;;;;36.02;40.87;99012.47;4960493;27;98449;-73
2024/03/30 11:40:51;;;;;;;;;;;;;;;35.98;40.77;99008.28;4943228;28;102920;-69
2024/03/30 11:43:38;;;;;;;;;;;;;;;35.39;41.38;99015.03;4939399;27;98522;-69
2024/03/30 11:46:05;;;;;;;;;;;;;;;35.16;41.46;99005.28;4962613;27;99131;-74
2024/03/30 11:48:31;;;;;;;;;;;;;;;35.25;41.22;99004.47;4963193;28;98095;-74
2024/03/30 11:50:59;;;;;;;;;;;;;;;35.05;41.17;98999.38;4946503;27;99126;-69
2024/03/30 11:53:26;;;;;;;;;;;;;;;34.82;41.45;99000.81;4925233;27;101674;-73
2024/03/30 11:55:53;;;;;;;;;;;;;;;35.18;40.97;99002.03;4929533;28;98442;-69
2024/03/30 11:58:20;;;;;;;;;;;;;;;35.23;40.87;99001.38;4941454;27;99637;-73
2024/03/30 12:00:53;;;;;;;;;;;;;;;35.22;40.92;99005.44;4977488;27;98222;-69
2024/03/30 12:03:20;;;;;;;;;;;;;;;35.09;40.69;98993.63;4944365;27;98147;-68
2024/03/30 12:05:52;;;;;;;;;;;;;;;34.92;40.96;98993.94;4952218;27;100039;-73
2024/03/30 12:08:28;;;;;;;;;;;;;;;34.90;41.19;98985.25;4945928;27;99312;-73
2024/03/30 12:10:55;;;;;;;;;;;;;;;34.93;41.30;98984.31;4942305;27;98318;-72
2024/03/30 12:13:26;;;;;;;;;;;;;;;35.08;40.60;98976.06;4949380;27;98261;-69
2024/03/30 12:15:52;;;;;;;;;;;;;;;35.17;40.82;98972.47;4923910;27;98294;-73
2024/03/30 12:18:19;;;;;;;;;;;;;;;35.23;40.47;98979.00;4934617;27;98332;-69
2024/03/30 12:20:47;;;;;;;;;;;;;;;35.26;40.42;98980.84;4935542;28;99784;-69
2024/03/30 12:23:14;;;;;;;;;;;;;;;35.19;40.54;98981.19;4924010;27;98525;-73
2024/03/30 12:25:44;;;;;;;;;;;;;;;35.13;40.79;98978.22;4934873;27;98195;-69
2024/03/30 12:28:10;;;;;;;;;;;;;;;35.08;40.72;98978.88;4917196;27;98398;-73
2024/03/30 12:30:46;;;;;;;;;;;;;;;35.11;40.70;98977.16;4923528;27;98215;-73
2024/03/30 12:33:13;;;;;;;;;;;;;;;34.95;40.75;98975.47;4940709;27;98203;-73
2024/03/30 12:35:39;;;;;;;;;;;;;;;34.93;40.80;98970.31;4934716;27;98728;-69
2024/03/30 12:38:06;;;;;;;;;;;;;;;34.85;41.05;98969.09;4922802;27;98452;-70
2024/03/30 12:40:33;;;;;;;;;;;;;;;34.80;40.80;98966.94;4922284;27;98312;-73
2024/03/30 12:43:02;;;;;;;;;;;;;;;34.59;40.83;98960.28;4932945;27;100648;-69
2024/03/30 12:45:32;;;;;;;;;;;;;;;34.26;41.17;98953.72;4936806;27;97908;-69
2024/03/30 12:47:59;;;;;;;;;;;;;;;34.30;41.44;98955.09;4955631;27;98329;-73
2024/03/30 12:50:26;;;;;;;;;;;;;;;34.24;41.33;98948.59;4934914;27;99229;-73